createdAt,value
2018-12-14T00:00:58.691Z,100565.03
2018-12-14T00:03:26.194Z,100570.56
2018-12-14T00:05:53.733Z,100562.35
2018-12-14T00:08:21.248Z,100556.53
2018-12-14T00:10:48.823Z,100561.77
2018-12-14T00:13:16.329Z,100563.08
2018-12-14T00:15:43.850Z,100563.54
2018-12-14T00:18:11.392Z,100566.14
2018-12-14T00:20:38.923Z,100568.89
2018-12-14T00:23:06.464Z,100571.45
2018-12-14T00:25:33.974Z,100572.56
2018-12-14T00:28:01.523Z,100572.59
2018-12-14T00:30:29.664Z,100576.22
2018-12-14T00:32:57.168Z,100570.09
2018-12-14T00:35:25.003Z,100567.07
2018-12-14T00:37:52.504Z,100574.19
2018-12-14T00:40:20.039Z,100570.56
2018-12-14T00:42:47.559Z,100576.84
2018-12-14T00:45:15.100Z,100579.47
2018-12-14T00:47:42.607Z,100577.18
2018-12-14T00:50:10.216Z,100578.58
2018-12-14T00:52:37.791Z,100585.36
2018-12-14T00:55:06.396Z,100578.84
2018-12-14T00:57:33.943Z,100581.47
2018-12-14T01:00:01.452Z,100581.02
2018-12-14T01:02:29.019Z,100576.94
2018-12-14T01:04:56.744Z,100578.53
2018-12-14T01:07:24.384Z,100576.77
2018-12-14T01:09:51.923Z,100578.94
2018-12-14T01:12:19.623Z,100580.68
2018-12-14T01:14:47.290Z,100576.39
2018-12-14T01:17:14.824Z,100580.34
2018-12-14T01:19:42.389Z,100583.77
2018-12-14T01:22:09.947Z,100584.05
2018-12-14T01:24:37.448Z,100587.97
2018-12-14T01:27:05.175Z,100592.13
2018-12-14T01:29:32.699Z,100590.39
2018-12-14T01:32:00.228Z,100593.06
2018-12-14T01:34:27.767Z,100591.36
2018-12-14T01:36:55.299Z,100589.16
2018-12-14T01:39:22.843Z,100594.44
2018-12-14T01:41:50.359Z,100599.79
2018-12-14T01:44:17.896Z,100595.63
2018-12-14T01:46:45.472Z,100595.63
2018-12-14T01:49:12.996Z,100595.95
2018-12-14T01:51:40.555Z,100584.23
2018-12-14T01:54:08.060Z,100586.88
2018-12-14T01:56:35.595Z,100579.04
2018-12-14T01:59:03.595Z,100577.53
2018-12-14T02:01:31.203Z,100575.09
2018-12-14T02:03:58.725Z,100571.28
2018-12-14T02:06:26.239Z,100573.07
2018-12-14T02:08:53.784Z,100573.12
2018-12-14T02:11:21.307Z,100562.59
2018-12-14T02:13:48.840Z,100560.02
2018-12-14T02:16:16.372Z,100558.19
2018-12-14T02:18:44.134Z,100555.37
2018-12-14T02:21:11.681Z,100551.98
2018-12-14T02:23:39.224Z,100549.80
2018-12-14T02:26:06.803Z,100551.77
2018-12-14T02:28:34.308Z,100552.77
2018-12-14T02:31:02.243Z,100557.28
2018-12-14T02:33:29.749Z,100560.22
2018-12-14T02:35:57.448Z,100560.36
2018-12-14T02:38:24.997Z,100564.70
2018-12-14T02:40:52.523Z,100564.38
2018-12-14T02:43:22.063Z,100570.45
2018-12-14T02:45:49.571Z,100566.54
2018-12-14T02:48:17.274Z,100564.73
2018-12-14T02:50:44.918Z,100564.77
2018-12-14T02:53:12.428Z,100559.78
2018-12-14T02:55:39.983Z,100563.13
2018-12-14T02:58:07.498Z,100563.58
2018-12-14T03:00:35.135Z,100561.83
2018-12-14T03:03:02.645Z,100563.39
2018-12-14T03:05:30.156Z,100559.03
2018-12-14T03:07:57.708Z,100559.84
2018-12-14T03:10:25.235Z,100561.28
2018-12-14T03:12:52.891Z,100561.67
2018-12-14T03:15:20.404Z,100556.35
2018-12-14T03:17:47.907Z,100558.06
2018-12-14T03:20:15.565Z,100561.47
2018-12-14T03:22:43.091Z,100557.73
2018-12-14T03:25:10.629Z,100556.45
2018-12-14T03:27:38.136Z,100556.46
2018-12-14T03:30:07.061Z,100559.67
2018-12-14T03:32:34.608Z,100568.23
2018-12-14T03:35:02.125Z,100564.64
2018-12-14T03:37:29.696Z,100565.20
2018-12-14T03:39:57.340Z,100558.60
2018-12-14T03:42:24.947Z,100562.03
2018-12-14T03:44:52.547Z,100559.89
2018-12-14T03:47:20.057Z,100560.36
2018-12-14T03:49:47.603Z,100554.11
2018-12-14T03:52:15.212Z,100556.23
2018-12-14T03:54:42.716Z,100555.84
2018-12-14T03:57:10.263Z,100548.19
2018-12-14T03:59:37.780Z,100551.34
2018-12-14T04:02:05.407Z,100552.82
2018-12-14T04:04:32.932Z,100561.06
2018-12-14T04:07:00.439Z,100558.41
2018-12-14T04:09:27.994Z,100555.87
2018-12-14T04:11:55.503Z,100552.22
2018-12-14T04:14:23.050Z,100551.34
2018-12-14T04:16:50.576Z,100555.52
2018-12-14T04:19:18.087Z,100545.58
2018-12-14T04:21:45.623Z,100550.45
2018-12-14T04:24:13.157Z,100545.34
2018-12-14T04:26:40.819Z,100550.50
2018-12-14T04:29:08.323Z,100542.28
2018-12-14T04:31:35.831Z,100541.70
2018-12-14T04:34:03.364Z,100549.19
2018-12-14T04:36:30.885Z,100543.94
2018-12-14T04:38:58.597Z,100547.63
2018-12-14T04:41:26.099Z,100548.31
2018-12-14T04:43:53.605Z,100550.37
2018-12-14T04:46:21.174Z,100546.75
2018-12-14T04:48:48.699Z,100546.08
2018-12-14T04:51:16.272Z,100544.30
2018-12-14T04:53:43.819Z,100543.42
2018-12-14T04:56:11.344Z,100545.91
2018-12-14T04:58:38.884Z,100549.59
2018-12-14T05:01:06.395Z,100556.86
2018-12-14T05:03:33.947Z,100556.03
2018-12-14T05:06:01.457Z,100557.39
2018-12-14T05:08:28.967Z,100551.34
2018-12-14T05:10:56.536Z,100557.00
2018-12-14T05:13:24.040Z,100569.64
2018-12-14T05:15:51.600Z,100559.59
2018-12-14T05:18:19.128Z,100559.19
2018-12-14T05:20:46.632Z,100559.59
2018-12-14T05:23:14.166Z,100567.09
2018-12-14T05:25:41.667Z,100569.69
2018-12-14T05:28:09.227Z,100569.17
2018-12-14T05:30:36.732Z,100571.86
2018-12-14T05:33:04.235Z,100574.91
2018-12-14T05:35:31.787Z,100570.20
2018-12-14T05:37:59.299Z,100567.83
2018-12-14T05:40:26.831Z,100574.50
2018-12-14T05:42:54.348Z,100575.92
2018-12-14T05:45:21.859Z,100578.53
2018-12-14T05:47:49.419Z,100576.22
2018-12-14T05:50:16.923Z,100579.73
2018-12-14T05:52:44.456Z,100584.48
2018-12-14T05:55:11.968Z,100582.78
2018-12-14T05:57:39.537Z,100579.45
2018-12-14T06:00:09.340Z,100585.03
2018-12-14T06:02:36.868Z,100584.21
2018-12-14T06:05:05.409Z,100592.82
2018-12-14T06:07:32.914Z,100588.97
2018-12-14T06:10:00.499Z,100589.39
2018-12-14T06:12:28.300Z,100588.34
2018-12-14T06:14:55.815Z,100585.91
2018-12-14T06:17:23.356Z,100587.83
2018-12-14T06:19:50.878Z,100592.13
2018-12-14T06:22:18.552Z,100589.47
2018-12-14T06:24:46.077Z,100586.03
2018-12-14T06:27:13.579Z,100595.15
2018-12-14T06:29:41.118Z,100592.48
2018-12-14T06:32:08.622Z,100598.12
2018-12-14T06:34:36.354Z,100602.05
2018-12-14T06:37:04.455Z,100603.83
2018-12-14T06:39:32.069Z,100612.95
2018-12-14T06:41:59.733Z,100612.73
2018-12-14T06:44:27.279Z,100614.75
2018-12-14T06:46:54.971Z,100621.88
2018-12-14T06:49:22.495Z,100622.38
2018-12-14T06:51:50.004Z,100627.93
2018-12-14T06:54:17.537Z,100626.16
2018-12-14T06:56:45.045Z,100627.91
2018-12-14T06:59:12.771Z,100624.75
2018-12-14T07:01:40.275Z,100634.77
2018-12-14T07:04:07.817Z,100621.59
2018-12-14T07:06:35.363Z,100627.39
2018-12-14T07:09:04.648Z,100635.70
2018-12-14T07:11:32.255Z,100640.50
2018-12-14T07:13:59.764Z,100647.98
2018-12-14T07:16:27.764Z,100650.69
2018-12-14T07:18:55.303Z,100647.74
2018-12-14T07:21:22.805Z,100653.91
2018-12-14T07:23:50.422Z,100658.45
2018-12-14T07:26:17.931Z,100662.29
2018-12-14T07:28:45.441Z,100662.65
2018-12-14T07:31:12.972Z,100662.27
2018-12-14T07:33:40.488Z,100665.02
2018-12-14T07:36:08.079Z,100664.13
2018-12-14T07:38:35.587Z,100678.02
2018-12-14T07:41:03.096Z,100677.96
2018-12-14T07:43:30.628Z,100675.45
2018-12-14T07:45:58.131Z,100678.03
2018-12-14T07:48:25.907Z,100679.73
2018-12-14T07:50:53.468Z,100681.91
2018-12-14T07:53:20.986Z,100688.25
2018-12-14T07:55:48.520Z,100686.06
2018-12-14T07:58:16.033Z,100695.13
2018-12-14T08:00:43.611Z,100694.25
2018-12-14T08:03:11.115Z,100695.59
2018-12-14T08:05:38.619Z,100699.47
2018-12-14T08:08:06.175Z,100698.42
2018-12-14T08:10:33.703Z,100705.23
2018-12-14T08:13:01.437Z,100707.93
2018-12-14T08:15:29.043Z,100707.38
2018-12-14T08:17:56.575Z,100711.86
2018-12-14T08:20:24.132Z,100711.78
2018-12-14T08:22:51.648Z,100721.87
2018-12-14T08:25:19.778Z,100725.75
2018-12-14T08:27:47.283Z,100728.45
2018-12-14T08:30:14.933Z,100720.14
2018-12-14T08:32:42.437Z,100725.17
2018-12-14T08:35:09.939Z,100732.59
2018-12-14T08:37:37.514Z,100728.37
2018-12-14T08:40:06.847Z,100730.39
2018-12-14T08:42:34.396Z,100731.84
2018-12-14T08:45:01.917Z,100740.28
2018-12-14T08:47:29.427Z,100741.92
2018-12-14T08:49:56.980Z,100739.73
2018-12-14T08:52:24.508Z,100742.62
2018-12-14T08:54:52.268Z,100744.45
2018-12-14T08:57:19.781Z,100740.69
2018-12-14T08:59:47.283Z,100739.84
2018-12-14T09:02:14.843Z,100749.36
2018-12-14T09:04:42.343Z,100748.58
2018-12-14T09:07:09.945Z,100758.16
2018-12-14T09:09:37.569Z,100752.69
2018-12-14T09:12:05.071Z,100759.17
2018-12-14T09:14:32.632Z,100767.58
2018-12-14T09:17:00.136Z,100773.06
2018-12-14T09:19:27.675Z,100774.72
2018-12-14T09:21:55.180Z,100773.86
2018-12-14T09:24:22.691Z,100779.97
2018-12-14T09:26:50.251Z,100782.00
2018-12-14T09:29:17.952Z,100781.95
2018-12-14T09:31:46.071Z,100783.27
2018-12-14T09:34:13.616Z,100786.93
2018-12-14T09:36:41.120Z,100791.28
2018-12-14T09:39:08.753Z,100787.81
2018-12-14T09:41:36.267Z,100793.20
2018-12-14T09:44:03.804Z,100790.28
2018-12-14T09:46:36.908Z,100807.02
2018-12-14T09:49:01.026Z,100798.34
2018-12-14T09:51:28.575Z,100796.14
2018-12-14T09:53:56.099Z,100794.72
2018-12-14T09:56:23.682Z,100794.06
2018-12-14T09:58:51.193Z,100796.55
2018-12-14T10:01:18.741Z,100796.18
2018-12-14T10:03:46.392Z,100795.95
2018-12-14T10:06:15.847Z,100799.53
2018-12-14T10:08:43.562Z,100803.37
2018-12-14T10:11:11.205Z,100800.50
2018-12-14T10:13:38.955Z,100795.75
2018-12-14T10:16:06.911Z,100794.42
2018-12-14T10:18:34.421Z,100801.11
2018-12-14T10:21:01.964Z,100798.22
2018-12-14T10:23:29.473Z,100791.59
2018-12-14T10:25:56.979Z,100795.69
2018-12-14T10:28:24.519Z,100799.59
2018-12-14T10:30:52.035Z,100794.92
2018-12-14T10:33:19.571Z,100790.18
2018-12-14T10:35:47.079Z,100795.09
2018-12-14T10:38:14.584Z,100787.56
2018-12-14T10:40:42.112Z,100789.95
2018-12-14T10:43:09.622Z,100784.52
2018-12-14T10:45:37.456Z,100782.20
2018-12-14T10:48:05.079Z,100787.56
2018-12-14T10:50:39.189Z,100788.44
2018-12-14T10:53:04.703Z,100782.05
2018-12-14T10:55:32.405Z,100782.40
2018-12-14T10:57:59.947Z,100790.63
2018-12-14T11:03:32.880Z,100768.89
2018-12-14T11:06:00.852Z,100779.68
2018-12-14T11:08:28.423Z,100773.25
2018-12-14T11:10:55.965Z,100774.22
2018-12-14T11:13:23.507Z,100772.70
2018-12-14T11:15:51.023Z,100769.24
2018-12-14T11:18:18.567Z,100773.06
2018-12-14T11:20:46.099Z,100772.36
2018-12-14T11:23:13.620Z,100776.39
2018-12-14T11:25:41.963Z,100778.52
2018-12-14T11:28:09.484Z,100768.03
2018-12-14T11:30:37.066Z,100772.23
2018-12-14T11:33:04.649Z,100764.59
2018-12-14T11:35:34.790Z,100762.77
2018-12-14T11:38:06.190Z,100760.08
2018-12-14T11:40:33.710Z,100756.11
2018-12-14T11:43:01.520Z,100759.20
2018-12-14T11:45:29.131Z,100757.52
2018-12-14T11:47:56.651Z,100758.84
2018-12-14T11:50:24.193Z,100761.84
2018-12-14T11:52:51.707Z,100764.22
2018-12-14T11:55:19.276Z,100766.37
2018-12-14T11:57:46.795Z,100768.02
2018-12-14T12:00:14.447Z,100765.14
2018-12-14T12:02:43.317Z,100766.99
2018-12-14T12:05:11.150Z,100761.61
2018-12-14T12:07:39.980Z,100760.02
2018-12-14T12:10:08.307Z,100767.28
2018-12-14T12:12:35.919Z,100769.05
2018-12-14T12:15:03.476Z,100764.98
2018-12-14T12:17:31.392Z,100772.73
2018-12-14T12:19:59.087Z,100766.59
2018-12-14T12:22:26.604Z,100758.27
2018-12-14T12:24:54.135Z,100762.64
2018-12-14T12:27:22.624Z,100760.38
2018-12-14T12:29:50.153Z,100768.38
2018-12-14T12:32:17.831Z,100766.55
2018-12-14T12:34:45.346Z,100760.31
2018-12-14T12:37:12.867Z,100759.17
2018-12-14T12:39:40.411Z,100766.63
2018-12-14T12:42:07.939Z,100766.49
2018-12-14T12:44:35.579Z,100766.92
2018-12-14T12:47:03.092Z,100769.70
2018-12-14T12:49:30.610Z,100764.36
2018-12-14T12:51:58.160Z,100769.54
2018-12-14T12:54:25.737Z,100772.05
2018-12-14T12:56:53.352Z,100771.69
2018-12-14T12:59:21.276Z,100771.30
2018-12-14T13:01:48.795Z,100771.69
2018-12-14T13:04:16.343Z,100767.47
2018-12-14T13:06:43.857Z,100769.09
2018-12-14T13:09:12.355Z,100776.88
2018-12-14T13:11:39.881Z,100769.92
2018-12-14T13:14:07.428Z,100764.89
2018-12-14T13:16:34.976Z,100775.38
2018-12-14T13:19:02.491Z,100781.88
2018-12-14T13:21:30.035Z,100783.45
2018-12-14T13:23:57.552Z,100779.95
2018-12-14T13:26:25.116Z,100782.92
2018-12-14T13:28:53.304Z,100786.75
2018-12-14T13:31:20.941Z,100786.23
2018-12-14T13:33:48.455Z,100791.91
2018-12-14T13:36:16.199Z,100794.38
2018-12-14T13:38:43.773Z,100794.13
2018-12-14T13:41:11.297Z,100793.30
2018-12-14T13:43:38.835Z,100805.08
2018-12-14T13:46:06.365Z,100797.32
2018-12-14T13:48:33.924Z,100803.01
2018-12-14T13:51:04.243Z,100810.05
2018-12-14T13:53:31.792Z,100805.48
2018-12-14T13:55:59.343Z,100809.45
2018-12-14T13:58:26.863Z,100811.86
2018-12-14T14:00:54.471Z,100811.56
2018-12-14T14:03:21.999Z,100816.05
2018-12-14T14:05:49.621Z,100817.03
2018-12-14T14:08:17.139Z,100822.41
2018-12-14T14:10:44.660Z,100821.86
2018-12-14T14:13:12.214Z,100828.55
2018-12-14T14:15:39.731Z,100836.67
2018-12-14T14:18:07.283Z,100841.52
2018-12-14T14:20:34.807Z,100844.98
2018-12-14T14:23:02.423Z,100845.59
2018-12-14T14:25:30.206Z,100845.70
2018-12-14T14:27:57.719Z,100851.73
2018-12-14T14:30:25.403Z,100853.56
2018-12-14T14:32:52.935Z,100864.59
2018-12-14T14:35:20.448Z,100870.59
2018-12-14T14:37:47.994Z,100874.71
2018-12-14T14:40:15.507Z,100873.38
2018-12-14T14:42:43.205Z,100882.16
2018-12-14T14:45:10.740Z,100885.45
2018-12-14T14:47:38.259Z,100881.86
2018-12-14T14:50:08.139Z,100880.69
2018-12-14T14:52:35.651Z,100882.62
2018-12-14T14:55:03.848Z,100880.87
2018-12-14T14:57:31.948Z,100884.84
2018-12-14T14:59:59.722Z,100882.75
2018-12-14T15:02:27.276Z,100883.24
2018-12-14T15:04:54.792Z,100885.34
2018-12-14T15:07:22.463Z,100882.81
2018-12-14T15:09:50.013Z,100887.81
2018-12-14T15:12:17.651Z,100884.36
2018-12-14T15:14:45.195Z,100883.08
2018-12-14T15:17:12.708Z,100881.64
2018-12-14T15:19:40.278Z,100892.77
2018-12-14T15:22:07.802Z,100890.03
2018-12-14T15:24:35.316Z,100891.54
2018-12-14T15:27:04.191Z,100895.47
2018-12-14T15:29:31.743Z,100891.11
2018-12-14T15:31:59.359Z,100901.27
2018-12-14T15:34:27.071Z,100902.87
2018-12-14T15:36:54.599Z,100897.67
2018-12-14T15:39:22.124Z,100905.84
2018-12-14T15:41:49.683Z,100911.67
2018-12-14T15:44:17.672Z,100912.69
2018-12-14T15:46:45.199Z,100908.91
2018-12-14T15:49:12.752Z,100912.86
2018-12-14T15:51:40.259Z,100908.45
2018-12-14T15:54:07.772Z,100912.07
2018-12-14T15:56:35.519Z,100913.70
2018-12-14T15:59:03.059Z,100919.02
2018-12-14T16:01:30.580Z,100923.73
2018-12-14T16:03:58.131Z,100923.45
2018-12-14T16:06:25.653Z,100924.38
2018-12-14T16:08:53.183Z,100941.18
2018-12-14T16:11:21.515Z,100939.27
2018-12-14T16:13:49.233Z,100935.55
2018-12-14T16:16:16.806Z,100933.97
2018-12-14T16:18:44.376Z,100944.05
2018-12-14T16:21:11.992Z,100944.34
2018-12-14T16:23:39.652Z,100946.11
2018-12-14T16:26:07.210Z,100947.87
2018-12-14T16:28:35.857Z,100951.20
2018-12-14T16:31:03.367Z,100947.24
2018-12-14T16:33:31.069Z,100945.53
2018-12-14T16:35:58.592Z,100945.96
2018-12-14T16:38:26.121Z,100944.02
2018-12-14T16:40:53.663Z,100941.59
2018-12-14T16:43:21.190Z,100943.38
2018-12-14T16:45:48.744Z,100941.27
2018-12-14T16:48:16.268Z,100944.61
2018-12-14T16:50:43.816Z,100947.47
2018-12-14T16:53:11.492Z,100950.38
2018-12-14T16:55:39.011Z,100950.16
2018-12-14T16:58:06.591Z,100953.53
2018-12-14T17:00:34.112Z,100956.00
2018-12-14T17:03:01.636Z,100952.70
2018-12-14T17:05:29.203Z,100945.45
2018-12-14T17:07:56.715Z,100947.57
2018-12-14T17:10:24.267Z,100949.58
2018-12-14T17:12:51.776Z,100958.93
2018-12-14T17:15:19.388Z,100966.89
2018-12-14T17:17:46.936Z,100964.23
2018-12-14T17:20:14.460Z,100967.24
2018-12-14T17:22:42.007Z,100985.91
2018-12-14T17:25:09.639Z,100984.20
2018-12-14T17:27:37.212Z,100983.63
2018-12-14T17:30:05.570Z,100984.39
2018-12-14T17:32:33.175Z,100991.17
2018-12-14T17:35:00.731Z,100991.73
2018-12-14T17:37:28.246Z,100996.41
2018-12-14T17:39:55.832Z,100996.31
2018-12-14T17:42:23.347Z,100991.17
2018-12-14T17:44:50.863Z,100995.81
2018-12-14T17:47:18.408Z,100997.69
2018-12-14T17:49:45.938Z,100998.59
2018-12-14T17:52:13.487Z,100999.59
2018-12-14T17:54:41.003Z,101004.28
2018-12-14T17:57:08.519Z,101009.15
2018-12-14T17:59:36.068Z,101008.45
2018-12-14T18:02:03.581Z,101008.25
2018-12-14T18:04:31.148Z,101012.41
2018-12-14T18:06:58.684Z,101023.73
2018-12-14T18:09:26.244Z,101023.66
2018-12-14T18:11:53.808Z,101032.76
2018-12-14T18:14:21.327Z,101025.70
2018-12-14T18:16:50.031Z,101028.83
2018-12-14T18:19:17.548Z,101029.53
2018-12-14T18:21:45.087Z,101032.88
2018-12-14T18:24:12.670Z,101035.86
2018-12-14T18:26:40.187Z,101045.37
2018-12-14T18:29:07.797Z,101044.00
2018-12-14T18:31:35.315Z,101047.59
2018-12-14T18:34:02.839Z,101039.88
2018-12-14T18:36:30.383Z,101043.34
2018-12-14T18:38:57.903Z,101047.28
2018-12-14T18:41:25.463Z,101050.02
2018-12-14T18:43:52.980Z,101054.73
2018-12-14T18:46:20.524Z,101069.10
2018-12-14T18:48:48.083Z,101055.84
2018-12-14T18:51:15.708Z,101062.84
2018-12-14T18:53:45.261Z,101062.13
2018-12-14T18:56:12.785Z,101064.66
2018-12-14T18:58:40.327Z,101071.52
2018-12-14T19:01:07.876Z,101068.53
2018-12-14T19:03:35.396Z,101079.16
2018-12-14T19:06:03.036Z,101078.61
2018-12-14T19:08:30.551Z,101078.45
2018-12-14T19:10:58.081Z,101085.25
2018-12-14T19:13:25.627Z,101084.24
2018-12-14T19:15:59.456Z,101085.94
2018-12-14T19:18:22.893Z,101096.17
2018-12-14T19:20:50.420Z,101093.00
2018-12-14T19:23:19.982Z,101093.30
2018-12-14T19:25:47.607Z,101093.28
2018-12-14T19:28:15.123Z,101092.98
2018-12-14T19:30:42.835Z,101091.73
2018-12-14T19:33:10.354Z,101089.38
2018-12-14T19:35:37.863Z,101094.64
2018-12-14T19:38:05.421Z,101092.94
2018-12-14T19:40:32.944Z,101098.48
2018-12-14T19:43:00.488Z,101097.23
2018-12-14T19:45:28.017Z,101092.20
2018-12-14T19:47:55.569Z,101094.42
2018-12-14T19:50:23.123Z,101099.77
2018-12-14T19:52:50.642Z,101095.56
2018-12-14T19:55:18.191Z,101103.20
2018-12-14T19:57:45.722Z,101094.31
2018-12-14T20:00:13.675Z,101099.48
2018-12-14T20:02:41.191Z,101102.27
2018-12-14T20:05:08.854Z,101095.01
2018-12-14T20:07:36.479Z,101104.20
2018-12-14T20:10:05.184Z,101096.62
2018-12-14T20:12:32.727Z,101101.67
2018-12-14T20:15:00.260Z,101100.00
2018-12-14T20:17:27.780Z,101102.53
2018-12-14T20:19:55.331Z,101097.80
2018-12-14T20:22:22.851Z,101101.48
2018-12-14T20:24:50.403Z,101101.13
2018-12-14T20:27:17.966Z,101096.80
2018-12-14T20:29:45.511Z,101099.03
2018-12-14T20:32:13.059Z,101103.17
2018-12-14T20:34:40.580Z,101103.11
2018-12-14T20:37:08.134Z,101111.44
2018-12-14T20:39:35.651Z,101101.28
2018-12-14T20:42:03.212Z,101110.68
2018-12-14T20:44:30.741Z,101114.94
2018-12-14T20:46:58.319Z,101104.56
2018-12-14T20:49:25.856Z,101113.33
2018-12-14T20:51:53.743Z,101114.67
2018-12-14T20:54:21.263Z,101112.67
2018-12-14T20:56:51.603Z,101117.48
2018-12-14T20:59:18.373Z,101113.52
2018-12-14T21:01:45.907Z,101103.12
2018-12-14T21:04:13.465Z,101102.60
2018-12-14T21:06:40.991Z,101102.96
2018-12-14T21:09:08.539Z,101100.90
2018-12-14T21:11:36.096Z,101098.31
2018-12-14T21:14:03.757Z,101102.24
2018-12-14T21:16:31.339Z,101099.27
2018-12-14T21:18:58.864Z,101098.91
2018-12-14T21:21:26.384Z,101089.65
2018-12-14T21:23:53.936Z,101090.70
2018-12-14T21:26:21.467Z,101087.87
2018-12-14T21:28:49.099Z,101091.02
2018-12-14T21:31:16.633Z,101087.59
2018-12-14T21:33:44.151Z,101091.22
2018-12-14T21:36:11.728Z,101083.27
2018-12-14T21:38:39.279Z,101094.31
2018-12-14T21:41:06.975Z,101091.20
2018-12-14T21:43:34.495Z,101089.09
2018-12-14T21:46:02.083Z,101091.61
2018-12-14T21:48:29.749Z,101091.52
2018-12-14T21:50:57.280Z,101090.10
2018-12-14T21:53:24.984Z,101093.50
2018-12-14T21:55:52.509Z,101095.27
2018-12-14T21:58:20.024Z,101096.72
2018-12-14T22:00:47.710Z,101088.44
2018-12-14T22:03:17.263Z,101090.53
2018-12-14T22:05:44.881Z,101092.72
2018-12-14T22:08:12.403Z,101083.59
2018-12-14T22:10:39.928Z,101088.08
2018-12-14T22:13:07.477Z,101088.60
2018-12-14T22:15:35.100Z,101088.14
2018-12-14T22:18:02.854Z,101089.03
2018-12-14T22:20:30.485Z,101082.78
2018-12-14T22:22:58.038Z,101090.66
2018-12-14T22:25:25.591Z,101094.11
2018-12-14T22:27:53.128Z,101093.73
2018-12-14T22:30:20.684Z,101094.20
2018-12-14T22:32:48.223Z,101093.90
2018-12-14T22:35:15.755Z,101086.84
2018-12-14T22:37:43.299Z,101087.42
2018-12-14T22:40:10.831Z,101089.61
2018-12-14T22:42:38.444Z,101089.32
2018-12-14T22:45:06.272Z,101086.67
2018-12-14T22:47:33.793Z,101085.46
2018-12-14T22:50:01.340Z,101083.05
2018-12-14T22:52:28.859Z,101083.44
2018-12-14T22:54:56.439Z,101081.50
2018-12-14T22:57:23.981Z,101074.02
2018-12-14T22:59:52.462Z,101077.94
2018-12-14T23:02:20.011Z,101072.80
2018-12-14T23:04:47.527Z,101074.08
2018-12-14T23:07:15.204Z,101064.98
2018-12-14T23:09:42.795Z,101073.91
2018-12-14T23:12:10.311Z,101067.47
2018-12-14T23:14:37.859Z,101063.94
2018-12-14T23:17:06.020Z,101072.64
2018-12-14T23:19:33.584Z,101075.00
2018-12-14T23:22:01.105Z,101078.79
2018-12-14T23:24:28.627Z,101084.47
2018-12-14T23:26:56.179Z,101086.58
2018-12-14T23:29:23.698Z,101090.98
2018-12-14T23:31:51.563Z,101091.91
2018-12-14T23:34:19.079Z,101094.52
2018-12-14T23:36:46.728Z,101085.16
2018-12-14T23:39:14.284Z,101084.52
2018-12-14T23:41:41.827Z,101085.72
2018-12-14T23:44:09.499Z,101086.64
2018-12-14T23:46:37.019Z,101095.83
2018-12-14T23:49:04.539Z,101094.22
2018-12-14T23:51:32.083Z,101096.32
2018-12-14T23:53:59.603Z,101094.33
2018-12-14T23:56:27.492Z,101095.77
2018-12-14T23:58:55.012Z,101094.91
